Time;durP1;ratioP1;P1;durP2;ratioP2;P2;SDS_P1;SDS_P2;PMS_P1;PMS_P2;Temp;Humidity;BMP_temperature;BMP_pressure;BME280_temperature;BME280_humidity;BME280_pressure;Samples;Min_cycle;Max_cycle;Signal;HPM_P1;HPM_P2
2023/02/24 00:04:19;;;;;;;;;;;;;;;2.53;100.00;101533.72;10400083;28;20376;-68
2023/02/24 00:09:25;;;;;;;;;;;;;;;2.47;100.00;101522.59;10418900;28;19968;-68
2023/02/24 00:14:28;;;;;;;;;;;;;;;2.47;100.00;101523.47;10400696;28;20011;-68
2023/02/24 00:19:33;;;;;;;;;;;;;;;2.26;100.00;101515.97;10400018;28;19929;-68
2023/02/24 00:24:36;;;;;;;;;;;;;;;2.01;100.00;101513.63;10416644;28;19991;-68
2023/02/24 00:29:39;;;;;;;;;;;;;;;2.09;100.00;101514.41;10380181;28;19925;-68
2023/02/24 00:34:42;;;;;;;;;;;;;;;2.20;100.00;101507.41;10376985;28;19926;-68
2023/02/24 00:39:44;;;;;;;;;;;;;;;2.28;100.00;101504.72;10376763;28;19989;-68
2023/02/24 00:44:47;;;;;;;;;;;;;;;2.17;100.00;101503.97;10376506;28;19929;-68
2023/02/24 00:49:49;;;;;;;;;;;;;;;2.71;100.00;101508.53;10376216;28;19925;-68
2023/02/24 00:54:51;;;;;;;;;;;;;;;2.52;100.00;101501.00;10376308;28;19933;-68
2023/02/24 00:59:57;;;;;;;;;;;;;;;2.71;100.00;101498.19;10417126;28;19925;-68
2023/02/24 01:05:00;;;;;;;;;;;;;;;2.57;100.00;101481.13;10416763;28;19932;-68
2023/02/24 01:10:04;;;;;;;;;;;;;;;2.36;100.00;101479.66;10416110;28;19925;-68
2023/02/24 01:15:08;;;;;;;;;;;;;;;2.29;100.00;101475.44;10415501;28;20382;-68
2023/02/24 01:20:17;;;;;;;;;;;;;;;2.12;100.00;101465.31;10416502;28;19929;-68
2023/02/24 01:25:21;;;;;;;;;;;;;;;2.09;100.00;101467.06;10399102;28;20445;-68
2023/02/24 01:30:23;;;;;;;;;;;;;;;2.12;100.00;101448.91;10397113;28;19925;-68
2023/02/24 01:35:25;;;;;;;;;;;;;;;1.96;100.00;101443.09;10421962;28;20339;-68
2023/02/24 01:40:28;;;;;;;;;;;;;;;1.99;100.00;101435.31;10428687;28;19925;-68
2023/02/24 01:45:35;;;;;;;;;;;;;;;1.72;100.00;101426.16;10429473;28;19951;-68
2023/02/24 01:50:37;;;;;;;;;;;;;;;2.00;100.00;101417.22;10429582;28;19925;-68
2023/02/24 01:55:41;;;;;;;;;;;;;;;1.77;100.00;101409.72;10410573;28;19925;-68
2023/02/24 02:00:44;;;;;;;;;;;;;;;1.74;100.00;101401.16;10410575;28;19925;-68
2023/02/24 02:05:47;;;;;;;;;;;;;;;1.69;100.00;101385.72;10429118;28;19925;-68
2023/02/24 02:10:57;;;;;;;;;;;;;;;1.55;100.00;101370.41;10410562;28;20016;-68
2023/02/24 02:16:02;;;;;;;;;;;;;;;1.43;100.00;101361.06;10414364;28;19925;-68
2023/02/24 02:21:04;;;;;;;;;;;;;;;1.44;100.00;101357.59;10411384;28;19929;-68
2023/02/24 02:26:09;;;;;;;;;;;;;;;1.45;100.00;101355.88;10427290;28;20399;-68
2023/02/24 02:31:16;;;;;;;;;;;;;;;1.61;100.00;101341.06;10427727;28;19961;-68
2023/02/24 02:36:41;;;;;;;;;;;;;;;1.41;100.00;101331.84;10409759;28;20281;-68
2023/02/24 02:41:46;;;;;;;;;;;;;;;1.62;100.00;101322.97;10427955;28;20367;-68
2023/02/24 02:46:55;;;;;;;;;;;;;;;1.62;100.00;101322.97;10424395;28;19972;-68
2023/02/24 02:51:59;;;;;;;;;;;;;;;1.44;100.00;101305.97;10403986;28;19925;-68
2023/02/24 02:57:09;;;;;;;;;;;;;;;1.32;100.00;101308.69;10403066;28;19932;-69
2023/02/24 03:02:12;;;;;;;;;;;;;;;1.47;100.00;101305.09;10387006;28;20426;-68
2023/02/24 03:07:15;;;;;;;;;;;;;;;1.37;100.00;101301.75;10403845;28;19929;-67
2023/02/24 03:12:19;;;;;;;;;;;;;;;1.38;100.00;101289.72;10402828;28;19925;-67
2023/02/24 03:17:21;;;;;;;;;;;;;;;1.43;100.00;101299.13;10402304;28;19925;-67
2023/02/24 03:22:26;;;;;;;;;;;;;;;1.58;100.00;101274.00;10402165;28;19929;-67
2023/02/24 03:28:07;;;;;;;;;;;;;;;1.58;100.00;101261.09;10401572;28;19954;-67
2023/02/24 03:33:15;;;;;;;;;;;;;;;1.52;100.00;101256.88;10293914;28;19961;-67
2023/02/24 03:38:18;;;;;;;;;;;;;;;1.43;100.00;101259.53;10394133;28;19925;-67
2023/02/24 03:43:30;;;;;;;;;;;;;;;1.43;100.00;101244.94;10419756;28;19929;-67
2023/02/24 03:48:33;;;;;;;;;;;;;;;1.63;100.00;101241.22;10401086;28;20273;-67
2023/02/24 03:53:39;;;;;;;;;;;;;;;1.41;100.00;101249.28;10401966;28;19979;-67
2023/02/24 03:58:41;;;;;;;;;;;;;;;1.58;100.00;101237.84;10401036;28;19925;-67
2023/02/24 04:03:50;;;;;;;;;;;;;;;1.57;100.00;101229.28;10419079;28;19925;-67
2023/02/24 04:09:00;;;;;;;;;;;;;;;1.70;100.00;101231.69;10418979;28;19925;-67
2023/02/24 04:14:05;;;;;;;;;;;;;;;1.56;100.00;101224.13;10400277;28;19925;-67
2023/02/24 04:19:12;;;;;;;;;;;;;;;1.62;100.00;101222.31;10400545;28;20384;-67
2023/02/24 04:24:16;;;;;;;;;;;;;;;1.50;100.00;101217.31;10400572;28;19936;-67
2023/02/24 04:29:21;;;;;;;;;;;;;;;1.47;100.00;101213.03;10417242;28;19928;-67
2023/02/24 04:34:25;;;;;;;;;;;;;;;1.57;100.00;101211.22;10399657;28;19932;-67
2023/02/24 04:39:27;;;;;;;;;;;;;;;1.65;100.00;101201.63;10417711;28;19979;-67
2023/02/24 04:44:31;;;;;;;;;;;;;;;1.81;100.00;101188.50;10415987;28;20292;-67
2023/02/24 04:49:33;;;;;;;;;;;;;;;1.78;100.00;101185.97;10399438;28;19975;-67
2023/02/24 04:54:36;;;;;;;;;;;;;;;1.83;100.00;101179.88;10399577;28;19929;-67
2023/02/24 04:59:39;;;;;;;;;;;;;;;1.71;100.00;101169.69;10416009;28;19979;-67
2023/02/24 05:04:41;;;;;;;;;;;;;;;1.93;100.00;101167.66;10416799;28;19925;-67
2023/02/24 05:09:45;;;;;;;;;;;;;;;1.81;100.00;101158.34;10415724;28;19925;-67
2023/02/24 05:14:48;;;;;;;;;;;;;;;1.90;100.00;101143.59;10399131;28;19952;-67
2023/02/24 05:25:13;;;;;;;;;;;;;;;1.76;100.00;101134.34;10416353;28;19925;-67
2023/02/24 05:30:15;;;;;;;;;;;;;;;1.87;100.00;101126.44;10415598;28;19929;-67
2023/02/24 05:35:18;;;;;;;;;;;;;;;1.75;100.00;101119.75;10397451;28;20349;-68
2023/02/24 05:40:22;;;;;;;;;;;;;;;1.64;100.00;101109.56;10415434;28;20373;-67
2023/02/24 05:45:29;;;;;;;;;;;;;;;1.79;100.00;101090.41;10397196;28;19933;-68
2023/02/24 05:50:31;;;;;;;;;;;;;;;1.76;100.00;101082.72;10415900;28;19967;-67
2023/02/24 05:55:35;;;;;;;;;;;;;;;1.74;100.00;101079.31;10414998;28;19925;-67
2023/02/24 06:00:38;;;;;;;;;;;;;;;1.92;100.00;101074.72;10397832;28;19951;-67
2023/02/24 06:05:41;;;;;;;;;;;;;;;1.64;100.00;101068.28;10398177;28;19975;-68
2023/02/24 06:10:45;;;;;;;;;;;;;;;1.91;100.00;101062.69;10414284;28;19925;-67
2023/02/24 06:15:53;;;;;;;;;;;;;;;1.76;100.00;101049.16;10397901;28;19925;-68
2023/02/24 06:20:55;;;;;;;;;;;;;;;1.84;100.00;101044.72;10398720;28;19936;-67
2023/02/24 06:26:04;;;;;;;;;;;;;;;1.98;100.00;101026.38;10404672;28;19931;-67
2023/02/24 06:31:06;;;;;;;;;;;;;;;1.94;100.00;101027.34;10404360;28;19925;-68
2023/02/24 06:36:09;;;;;;;;;;;;;;;1.85;100.00;101015.44;10388234;28;19925;-68
2023/02/24 06:41:11;;;;;;;;;;;;;;;1.92;100.00;101021.34;10422013;28;19951;-67
2023/02/24 06:46:14;;;;;;;;;;;;;;;2.08;100.00;101011.56;10421516;28;19925;-67
2023/02/24 06:51:16;;;;;;;;;;;;;;;2.00;100.00;101003.13;10420878;28;20408;-68
2023/02/24 06:56:19;;;;;;;;;;;;;;;2.01;100.00;100991.91;10421830;28;19932;-68
2023/02/24 07:01:25;;;;;;;;;;;;;;;2.04;100.00;100986.69;10421701;28;19925;-67
2023/02/24 07:06:28;;;;;;;;;;;;;;;2.11;100.00;100979.69;10403181;28;19925;-68
2023/02/24 07:11:30;;;;;;;;;;;;;;;2.04;100.00;100978.94;10403521;28;20376;-67
2023/02/24 07:16:34;;;;;;;;;;;;;;;2.12;100.00;100974.50;10421135;28;19925;-67
2023/02/24 07:21:38;;;;;;;;;;;;;;;2.50;100.00;100970.25;10403925;28;20339;-68
2023/02/24 07:26:41;;;;;;;;;;;;;;;2.59;100.00;100969.25;10428519;28;19925;-70
2023/02/24 07:31:43;;;;;;;;;;;;;;;2.36;100.00;100951.63;10419194;28;19931;-70
2023/02/24 07:36:48;;;;;;;;;;;;;;;2.31;100.00;100954.28;10420310;28;19928;-70
2023/02/24 07:41:51;;;;;;;;;;;;;;;2.45;100.00;100940.22;10419459;28;20380;-70
2023/02/24 07:46:55;;;;;;;;;;;;;;;2.74;100.00;100935.28;10402395;28;19929;-70
2023/02/24 07:51:57;;;;;;;;;;;;;;;2.70;100.00;100927.63;10401555;28;20343;-70
2023/02/24 07:57:00;;;;;;;;;;;;;;;2.73;100.00;100925.81;10419486;28;19929;-70
2023/02/24 08:02:06;;;;;;;;;;;;;;;2.71;100.00;100926.75;10418681;28;19925;-70
2023/02/24 08:07:13;;;;;;;;;;;;;;;3.02;100.00;100905.31;10419078;28;19976;-70
2023/02/24 08:12:16;;;;;;;;;;;;;;;3.20;100.00;100916.97;10419564;28;20144;-70
2023/02/24 08:17:20;;;;;;;;;;;;;;;3.37;100.00;100911.38;10400552;28;19948;-70
2023/02/24 08:22:23;;;;;;;;;;;;;;;3.49;98.99;100901.53;10400348;28;20435;-70
2023/02/24 08:27:29;;;;;;;;;;;;;;;3.35;99.70;100894.13;10417564;28;19932;-69
2023/02/24 08:32:42;;;;;;;;;;;;;;;3.35;100.00;100888.94;10400105;28;20391;-70
2023/02/24 08:37:46;;;;;;;;;;;;;;;3.26;100.00;100880.56;10400745;28;20384;-69
2023/02/24 08:42:48;;;;;;;;;;;;;;;3.17;100.00;100879.91;10400221;28;19925;-69
2023/02/24 08:47:53;;;;;;;;;;;;;;;3.53;100.00;100859.16;10413077;28;19925;-72
2023/02/24 08:52:56;;;;;;;;;;;;;;;3.33;100.00;100864.88;10397479;28;19953;-68
2023/02/24 08:58:00;;;;;;;;;;;;;;;3.54;100.00;100837.53;10406622;28;19925;-69
2023/02/24 09:03:07;;;;;;;;;;;;;;;3.72;100.00;100837.94;10380289;28;19925;-69
2023/02/24 09:08:09;;;;;;;;;;;;;;;3.80;100.00;100828.22;10415906;28;19952;-69
2023/02/24 09:13:11;;;;;;;;;;;;;;;3.88;100.00;100830.56;10411315;28;20296;-69
2023/02/24 09:18:13;;;;;;;;;;;;;;;4.07;100.00;100813.59;10397326;28;20284;-69
2023/02/24 09:23:18;;;;;;;;;;;;;;;4.07;100.00;100817.94;10411750;28;19940;-69
2023/02/24 09:28:23;;;;;;;;;;;;;;;3.65;100.00;100803.59;10413443;28;19925;-69
2023/02/24 09:33:27;;;;;;;;;;;;;;;3.61;100.00;100801.13;10392572;28;20019;-69
2023/02/24 09:43:58;;;;;;;;;;;;;;;3.57;100.00;100777.06;10375033;23;19926;-70
2023/02/24 09:49:11;;;;;;;;;;;;;;;3.66;100.00;100771.59;10328502;28;20447;-71
2023/02/24 09:54:18;;;;;;;;;;;;;;;3.50;100.00;100760.84;10347873;28;19926;-71
2023/02/24 09:59:26;;;;;;;;;;;;;;;3.52;100.00;100759.06;10365847;28;19976;-71
2023/02/24 10:04:32;;;;;;;;;;;;;;;3.50;100.00;100755.69;10383424;28;19972;-71
2023/02/24 10:09:55;;;;;;;;;;;;;;;3.51;100.00;100744.44;10383811;28;19929;-71
2023/02/24 10:15:19;;;;;;;;;;;;;;;3.74;100.00;100735.16;10368286;28;19925;-71
2023/02/24 10:20:38;;;;;;;;;;;;;;;3.98;100.00;100736.13;10370602;28;19925;-71
2023/02/24 10:25:52;;;;;;;;;;;;;;;4.17;100.00;100725.19;10423059;28;19975;-71
2023/02/24 10:31:08;;;;;;;;;;;;;;;4.12;100.00;100715.00;10404680;28;19925;-70
2023/02/24 10:36:17;;;;;;;;;;;;;;;4.03;100.00;100717.84;10407119;28;19925;-70
2023/02/24 10:41:27;;;;;;;;;;;;;;;4.03;100.00;100702.31;10395314;28;19931;-69
2023/02/24 10:46:32;;;;;;;;;;;;;;;4.18;100.00;100704.41;10380680;28;19925;-70
2023/02/24 10:51:46;;;;;;;;;;;;;;;4.28;100.00;100698.03;10379622;28;20377;-70
2023/02/24 10:57:06;;;;;;;;;;;;;;;4.21;100.00;100693.09;10363518;28;19929;-70
2023/02/24 11:02:28;;;;;;;;;;;;;;;4.33;100.00;100694.44;10365961;28;19925;-71
2023/02/24 11:07:44;;;;;;;;;;;;;;;4.49;100.00;100689.59;10364346;28;19925;-70
2023/02/24 11:18:22;;;;;;;;;;;;;;;4.57;100.00;100661.66;10367555;28;19935;-71
2023/02/24 11:23:27;;;;;;;;;;;;;;;4.72;100.00;100653.34;10361845;28;19932;-71
2023/02/24 11:28:33;;;;;;;;;;;;;;;4.54;100.00;100654.84;10361061;28;20434;-71
2023/02/24 11:33:41;;;;;;;;;;;;;;;4.67;100.00;100641.44;10346224;28;20396;-71
2023/02/24 11:39:01;;;;;;;;;;;;;;;4.58;100.00;100620.13;10380291;28;20339;-71
2023/02/24 11:44:21;;;;;;;;;;;;;;;4.56;100.00;100624.50;10363595;28;19925;-71
2023/02/24 11:49:23;;;;;;;;;;;;;;;4.75;100.00;100629.06;10361039;28;19956;-71
2023/02/24 11:54:25;;;;;;;;;;;;;;;4.83;100.00;100608.88;10381324;28;20334;-70
2023/02/24 11:59:46;;;;;;;;;;;;;;;5.11;100.00;100607.84;10377349;28;19929;-71
2023/02/24 12:04:48;;;;;;;;;;;;;;;4.96;100.00;100599.72;10377685;28;19972;-71
2023/02/24 12:09:55;;;;;;;;;;;;;;;5.02;100.00;100594.28;10378171;28;19926;-71
2023/02/24 12:15:30;;;;;;;;;;;;;;;4.79;100.00;100587.38;10378145;28;19925;-71
2023/02/24 12:20:35;;;;;;;;;;;;;;;5.10;100.00;100583.63;10377076;28;20373;-71
2023/02/24 12:25:43;;;;;;;;;;;;;;;5.00;100.00;100571.91;10376407;28;19960;-71
2023/02/24 12:30:57;;;;;;;;;;;;;;;4.95;100.00;100577.28;10376284;28;19930;-71
2023/02/24 12:36:02;;;;;;;;;;;;;;;5.16;100.00;100569.56;10376085;28;19925;-71
2023/02/24 12:41:31;;;;;;;;;;;;;;;5.04;100.00;100568.28;10377094;28;19926;-70
2023/02/24 12:46:34;;;;;;;;;;;;;;;4.95;100.00;100576.44;10353255;28;19929;-69
2023/02/24 12:51:45;;;;;;;;;;;;;;;5.05;100.00;100558.78;10358555;28;19929;-71
2023/02/24 12:56:48;;;;;;;;;;;;;;;5.06;100.00;100555.25;10375847;28;20427;-71
2023/02/24 13:02:00;;;;;;;;;;;;;;;5.34;100.00;100550.69;10372432;28;19925;-71
2023/02/24 13:07:14;;;;;;;;;;;;;;;5.55;100.00;100522.19;10342031;28;20004;-71
2023/02/24 13:12:19;;;;;;;;;;;;;;;5.40;100.00;100534.03;10375398;28;20328;-71
2023/02/24 13:17:23;;;;;;;;;;;;;;;5.78;100.00;100513.41;10375879;28;19929;-71
2023/02/24 13:22:26;;;;;;;;;;;;;;;6.48;100.00;100496.53;10358409;28;19925;-71
2023/02/24 13:27:30;;;;;;;;;;;;;;;6.23;100.00;100467.38;10375708;28;19925;-71
2023/02/24 13:32:34;;;;;;;;;;;;;;;6.14;100.00;100472.06;10375082;28;19932;-71
2023/02/24 13:37:37;;;;;;;;;;;;;;;6.52;100.00;100463.44;10342023;28;19984;-71
2023/02/24 13:42:39;;;;;;;;;;;;;;;6.56;100.00;100453.75;10357188;28;20292;-71
2023/02/24 13:47:42;;;;;;;;;;;;;;;6.22;100.00;100442.25;10374555;28;19948;-71
2023/02/24 13:53:02;;;;;;;;;;;;;;;10.54;100.00;100436.53;10375157;28;19925;-71
2023/02/24 13:58:17;;;;;;;;;;;;;;;8.77;100.00;100413.00;10375010;28;19925;-69
2023/02/24 14:03:21;;;;;;;;;;;;;;;7.48;100.00;100412.88;10374790;28;19926;-68
2023/02/24 14:08:25;;;;;;;;;;;;;;;7.60;100.00;100401.81;10357337;28;19925;-69
2023/02/24 14:13:28;;;;;;;;;;;;;;;13.89;83.09;100358.00;10356733;28;20285;-70
2023/02/24 14:18:31;;;;;;;;;;;;;;;9.86;93.41;100374.44;10374641;28;19925;-70
2023/02/24 14:23:33;;;;;;;;;;;;;;;8.79;100.00;100371.16;10374505;28;19972;-70
2023/02/24 14:28:36;;;;;;;;;;;;;;;8.63;100.00;100374.63;10356288;28;20021;-70
2023/02/24 14:33:39;;;;;;;;;;;;;;;8.11;100.00;100385.28;10357006;28;19925;-70
2023/02/24 14:38:42;;;;;;;;;;;;;;;7.84;100.00;100369.34;10373570;28;20431;-70
2023/02/24 14:43:44;;;;;;;;;;;;;;;7.37;100.00;100405.56;10360042;28;19950;-70
2023/02/24 14:48:51;;;;;;;;;;;;;;;6.74;100.00;100420.81;10386801;28;19925;-70
2023/02/24 14:53:54;;;;;;;;;;;;;;;6.76;100.00;100406.84;10380517;28;19971;-69
2023/02/24 14:58:57;;;;;;;;;;;;;;;6.84;100.00;100414.25;10364383;28;19925;-69
2023/02/24 15:04:00;;;;;;;;;;;;;;;7.34;100.00;100413.53;10363298;28;19926;-70
2023/02/24 15:09:04;;;;;;;;;;;;;;;6.55;100.00;100405.25;10363991;28;20380;-69
2023/02/24 15:14:13;;;;;;;;;;;;;;;6.72;100.00;100401.84;10346996;28;19925;-70
2023/02/24 15:19:20;;;;;;;;;;;;;;;6.67;100.00;100399.44;10362981;28;19926;-69
2023/02/24 15:24:26;;;;;;;;;;;;;;;6.93;100.00;100398.22;10398619;28;19929;-70
2023/02/24 15:29:29;;;;;;;;;;;;;;;6.83;100.00;100384.78;10385565;28;19925;-70
2023/02/24 15:34:33;;;;;;;;;;;;;;;6.63;100.00;100403.97;10381740;28;19937;-70
2023/02/24 15:39:36;;;;;;;;;;;;;;;6.99;100.00;100391.84;10379011;28;19925;-69
2023/02/24 15:44:38;;;;;;;;;;;;;;;6.70;100.00;100383.69;10361392;28;19929;-70
2023/02/24 15:49:40;;;;;;;;;;;;;;;6.59;100.00;100386.81;10379186;28;19929;-70
2023/02/24 15:54:42;;;;;;;;;;;;;;;6.96;100.00;100374.66;10411076;28;20296;-70
2023/02/24 15:59:45;;;;;;;;;;;;;;;7.01;100.00;100377.00;10402046;28;19925;-65
2023/02/24 16:04:47;;;;;;;;;;;;;;;7.15;100.00;100364.16;10378775;28;19925;-69
2023/02/24 16:09:51;;;;;;;;;;;;;;;6.75;100.00;100365.28;10360887;28;19933;-69
2023/02/24 16:15:00;;;;;;;;;;;;;;;6.55;100.00;100371.44;10359026;28;20369;-69
2023/02/24 16:20:07;;;;;;;;;;;;;;;6.51;100.00;100383.75;10377120;28;19933;-70
2023/02/24 16:25:13;;;;;;;;;;;;;;;6.43;100.00;100376.28;10376928;28;20429;-70
2023/02/24 16:30:16;;;;;;;;;;;;;;;6.53;100.00;100381.06;10376634;28;19925;-69
2023/02/24 16:35:20;;;;;;;;;;;;;;;6.51;100.00;100392.38;10374703;28;19929;-69
2023/02/24 16:40:28;;;;;;;;;;;;;;;6.00;100.00;100400.81;10377132;28;19955;-70
2023/02/24 16:45:31;;;;;;;;;;;;;;;5.73;100.00;100407.13;10359183;28;19932;-69
2023/02/24 16:50:39;;;;;;;;;;;;;;;5.53;100.00;100417.50;10354956;28;19932;-69
2023/02/24 16:55:42;;;;;;;;;;;;;;;5.69;100.00;100410.75;10370462;28;19925;-69
2023/02/24 17:00:45;;;;;;;;;;;;;;;5.45;100.00;100407.47;10406483;28;19930;-69
2023/02/24 17:05:47;;;;;;;;;;;;;;;5.31;100.00;100420.16;10372533;28;19977;-69
2023/02/24 17:10:49;;;;;;;;;;;;;;;5.71;100.00;100432.31;10372237;28;19932;-69
2023/02/24 17:15:55;;;;;;;;;;;;;;;5.36;100.00;100446.78;10371684;28;19925;-69
2023/02/24 17:20:58;;;;;;;;;;;;;;;5.39;100.00;100446.66;10374503;28;19929;-69
2023/02/24 17:26:00;;;;;;;;;;;;;;;5.57;100.00;100455.44;10389298;28;19933;-69
2023/02/24 17:31:04;;;;;;;;;;;;;;;5.47;100.00;100454.13;10374862;28;20300;-69
2023/02/24 17:36:06;;;;;;;;;;;;;;;5.42;100.00;100463.88;10375475;28;19929;-69
2023/02/24 17:41:09;;;;;;;;;;;;;;;5.55;100.00;100467.66;10374803;28;20335;-70
2023/02/24 17:46:12;;;;;;;;;;;;;;;5.75;100.00;100464.22;10357847;28;19925;-69
2023/02/24 17:51:15;;;;;;;;;;;;;;;5.33;100.00;100485.84;10375823;28;19925;-69
2023/02/24 17:56:17;;;;;;;;;;;;;;;5.07;100.00;100505.91;10356712;28;19948;-70
2023/02/24 18:01:19;;;;;;;;;;;;;;;4.86;100.00;100517.97;10374480;28;20380;-69
2023/02/24 18:06:21;;;;;;;;;;;;;;;4.63;100.00;100518.81;10374777;28;19980;-69
2023/02/24 18:11:24;;;;;;;;;;;;;;;4.70;100.00;100529.81;10374848;28;20435;-69
2023/02/24 18:16:27;;;;;;;;;;;;;;;4.63;100.00;100503.25;10374690;28;19933;-69
2023/02/24 18:21:29;;;;;;;;;;;;;;;4.67;100.00;100510.00;10364086;28;19925;-69
2023/02/24 18:26:31;;;;;;;;;;;;;;;4.72;100.00;100508.09;10384079;28;20004;-69
2023/02/24 18:31:34;;;;;;;;;;;;;;;4.68;100.00;100510.88;10380888;28;20380;-69
2023/02/24 18:36:36;;;;;;;;;;;;;;;4.58;100.00;100507.78;10383359;28;19932;-69
2023/02/24 18:41:39;;;;;;;;;;;;;;;4.47;100.00;100526.31;10381752;28;19925;-69
2023/02/24 18:46:41;;;;;;;;;;;;;;;4.60;100.00;100521.53;10363242;28;19930;-69
2023/02/24 18:51:44;;;;;;;;;;;;;;;4.58;100.00;100523.34;10382014;28;19925;-69
2023/02/24 18:56:47;;;;;;;;;;;;;;;4.45;100.00;100520.34;10380488;28;20285;-69
2023/02/24 19:01:50;;;;;;;;;;;;;;;4.51;100.00;100532.25;10380508;28;19925;-69
2023/02/24 19:06:52;;;;;;;;;;;;;;;4.63;100.00;100530.03;10380526;28;19968;-69
2023/02/24 19:11:54;;;;;;;;;;;;;;;4.50;100.00;100522.78;10378495;28;19926;-69
2023/02/24 19:16:59;;;;;;;;;;;;;;;4.28;100.00;100518.34;10347321;28;19929;-69
2023/02/24 19:22:02;;;;;;;;;;;;;;;4.09;100.00;100529.38;10380135;28;19932;-69
2023/02/24 19:27:04;;;;;;;;;;;;;;;3.89;100.00;100529.22;10379457;28;19926;-69
2023/02/24 19:32:06;;;;;;;;;;;;;;;3.94;100.00;100531.66;10364436;28;19925;-69
2023/02/24 19:37:08;;;;;;;;;;;;;;;3.84;100.00;100524.19;10379007;28;20399;-69
2023/02/24 19:42:10;;;;;;;;;;;;;;;3.75;100.00;100526.22;10380568;28;19925;-69
2023/02/24 19:47:13;;;;;;;;;;;;;;;3.76;100.00;100536.53;10375422;28;20427;-69
2023/02/24 19:52:15;;;;;;;;;;;;;;;3.71;100.00;100534.09;10378439;28;19925;-69
2023/02/24 19:57:17;;;;;;;;;;;;;;;3.50;100.00;100534.81;10378808;28;19992;-69
2023/02/24 20:02:20;;;;;;;;;;;;;;;3.44;100.00;100527.25;10378552;28;20372;-69
2023/02/24 20:07:23;;;;;;;;;;;;;;;3.51;100.00;100541.66;10377703;28;19925;-69
2023/02/24 20:12:25;;;;;;;;;;;;;;;3.76;100.00;100544.31;10378802;28;19971;-69
2023/02/24 20:17:27;;;;;;;;;;;;;;;3.84;100.00;100555.25;10377348;28;20369;-69
2023/02/24 20:22:30;;;;;;;;;;;;;;;4.00;100.00;100557.31;10377861;28;19929;-69
2023/02/24 20:27:32;;;;;;;;;;;;;;;3.87;100.00;100564.69;10378453;28;20380;-69
2023/02/24 20:32:34;;;;;;;;;;;;;;;3.82;100.00;100566.59;10377483;28;19929;-69
2023/02/24 20:37:37;;;;;;;;;;;;;;;3.67;100.00;100562.75;10376613;28;19925;-68
2023/02/24 20:42:39;;;;;;;;;;;;;;;3.56;100.00;100570.84;10374611;28;19926;-69
2023/02/24 20:47:41;;;;;;;;;;;;;;;3.66;100.00;100584.34;10376841;28;19925;-69
2023/02/24 20:52:43;;;;;;;;;;;;;;;3.75;100.00;100591.84;10376759;28;19926;-69
2023/02/24 20:57:45;;;;;;;;;;;;;;;3.79;100.00;100592.56;10376318;28;19925;-69
2023/02/24 21:02:48;;;;;;;;;;;;;;;3.83;100.00;100591.56;10374796;28;20366;-69
2023/02/24 21:07:50;;;;;;;;;;;;;;;3.71;100.00;100588.47;10374988;28;20288;-69
2023/02/24 21:12:53;;;;;;;;;;;;;;;3.64;100.00;100580.97;10358754;28;19925;-69
2023/02/24 21:17:55;;;;;;;;;;;;;;;3.74;100.00;100594.47;10375334;28;19929;-69
2023/02/24 21:22:57;;;;;;;;;;;;;;;3.93;100.00;100600.72;10376178;28;19971;-69
2023/02/24 21:27:59;;;;;;;;;;;;;;;3.69;100.00;100600.63;10375589;28;19926;-69
2023/02/24 21:33:02;;;;;;;;;;;;;;;3.69;100.00;100599.78;10378160;28;19925;-69
2023/02/24 21:38:07;;;;;;;;;;;;;;;3.72;100.00;100607.47;10374679;28;19925;-69
2023/02/24 21:43:09;;;;;;;;;;;;;;;3.47;100.00;100584.09;10375049;28;19933;-69
2023/02/24 21:48:11;;;;;;;;;;;;;;;3.25;100.00;100592.50;10375146;28;19926;-69
2023/02/24 21:53:13;;;;;;;;;;;;;;;3.15;100.00;100598.84;10379833;28;19925;-69
2023/02/24 21:58:16;;;;;;;;;;;;;;;3.27;100.00;100597.63;10390166;23;19926;-68
2023/02/24 22:03:18;;;;;;;;;;;;;;;3.29;100.00;100596.69;10385153;28;19980;-68
2023/02/24 22:08:20;;;;;;;;;;;;;;;3.53;100.00;100602.00;10382084;28;19930;-68
2023/02/24 22:13:23;;;;;;;;;;;;;;;3.61;100.00;100604.34;10380203;28;19932;-68
2023/02/24 22:18:25;;;;;;;;;;;;;;;3.53;100.00;100596.81;10395512;28;19932;-68
2023/02/24 22:23:27;;;;;;;;;;;;;;;3.62;100.00;100606.06;10422700;28;20303;-68
2023/02/24 22:28:30;;;;;;;;;;;;;;;3.47;100.00;100612.56;10422449;28;19945;-68
2023/02/24 22:33:33;;;;;;;;;;;;;;;3.50;100.00;100587.44;10404214;28;19925;-67
2023/02/24 22:38:36;;;;;;;;;;;;;;;3.51;100.00;100596.03;10404751;28;20348;-68
2023/02/24 22:43:39;;;;;;;;;;;;;;;3.55;100.00;100602.81;10388237;28;20283;-68
2023/02/24 22:48:41;;;;;;;;;;;;;;;3.70;100.00;100596.31;10421014;28;19932;-68
2023/02/24 22:53:45;;;;;;;;;;;;;;;3.59;100.00;100599.22;10404670;28;19929;-68
2023/02/24 22:58:47;;;;;;;;;;;;;;;3.49;100.00;100615.94;10420086;28;19987;-68
2023/02/24 23:03:50;;;;;;;;;;;;;;;3.38;100.00;100621.47;10402975;28;19975;-68
2023/02/24 23:08:53;;;;;;;;;;;;;;;3.24;100.00;100631.38;10420673;28;19925;-67
2023/02/24 23:13:57;;;;;;;;;;;;;;;3.25;100.00;100617.53;10403367;28;20376;-68
2023/02/24 23:19:00;;;;;;;;;;;;;;;3.30;100.00;100619.09;10420636;28;19933;-68
2023/02/24 23:24:03;;;;;;;;;;;;;;;3.12;100.00;100632.56;10402524;28;19925;-68
2023/02/24 23:29:06;;;;;;;;;;;;;;;3.10;100.00;100640.38;10420420;28;20438;-68
2023/02/24 23:34:08;;;;;;;;;;;;;;;3.04;100.00;100644.88;10420438;28;19933;-68
2023/02/24 23:39:11;;;;;;;;;;;;;;;2.93;100.00;100652.94;10419914;28;19931;-68
2023/02/24 23:44:14;;;;;;;;;;;;;;;3.07;100.00;100655.13;10402753;28;19940;-68
2023/02/24 23:49:16;;;;;;;;;;;;;;;2.78;100.00;100670.56;10419145;28;20342;-68
2023/02/24 23:54:19;;;;;;;;;;;;;;;3.02;100.00;100675.13;10419392;28;19971;-68
2023/02/24 23:59:21;;;;;;;;;;;;;;;2.93;100.00;100671.91;10419351;28;19925;-68
